Time;durP1;ratioP1;P1;durP2;ratioP2;P2;SDS_P1;SDS_P2;PMS_P1;PMS_P2;Temp;Humidity;BMP_temperature;BMP_pressure;BME280_temperature;BME280_humidity;BME280_pressure;Samples;Min_cycle;Max_cycle;Signal;HPM_P1;HPM_P2
2022/02/04 00:04:04;;;;;;;;;;;8.30;99.90;;;;;;2102964;28;19999;-71
2022/02/04 00:04:09;;;;;;;;;;;8.30;99.90;;;;;;2098321;28;19912;-71
2022/02/04 00:20:26;;;;;;;;;;;8.40;99.90;;;;;;2103355;28;19908;-71
2022/02/04 00:22:55;;;;;;;;;;;8.40;99.90;;;;;;2109761;28;19931;-71
2022/02/04 00:23:58;;;;;;;;;;;8.40;99.90;;;;;;2105969;28;21402;-71
2022/02/04 00:25:02;;;;;;;;;;;8.40;99.90;;;;;;2094697;28;20003;-71
2022/02/04 00:26:15;;;;;;;;;;;8.40;99.90;;;;;;2094408;28;19912;-71
2022/02/04 00:27:20;;;;;;;;;;;8.40;99.90;;;;;;2106862;28;19973;-71
2022/02/04 00:28:47;;;;;;;;;;;8.40;99.90;;;;;;2104076;28;19912;-71
2022/02/04 00:29:59;;;;;;;;;;;8.40;99.90;;;;;;2106305;28;19916;-71
2022/02/04 00:32:11;;;;;;;;;;;8.40;99.90;;;;;;2102812;28;19931;-71
2022/02/04 00:33:13;;;;;;;;;;;8.40;99.90;;;;;;2104451;28;20341;-71
2022/02/04 00:34:17;;;;;;;;;;;8.40;99.90;;;;;;2103789;28;19912;-71
2022/02/04 00:35:44;;;;;;;;;;;8.40;99.90;;;;;;2103202;28;19916;-71
2022/02/04 00:38:57;;;;;;;;;;;8.40;99.90;;;;;;2103233;28;19908;-71
2022/02/04 00:40:07;;;;;;;;;;;8.40;99.90;;;;;;2102679;28;19908;-71
2022/02/04 00:41:10;;;;;;;;;;;8.40;99.90;;;;;;2103215;28;19908;-72
2022/02/04 00:42:11;;;;;;;;;;;8.40;99.90;;;;;;2099133;28;20363;-71
2022/02/04 00:43:14;;;;;;;;;;;8.40;99.90;;;;;;2104951;28;19954;-71
2022/02/04 00:44:22;;;;;;;;;;;8.40;99.90;;;;;;2103451;28;19915;-71
2022/02/04 00:45:30;;;;;;;;;;;8.40;99.90;;;;;;2101601;28;19997;-71
2022/02/04 00:50:49;;;;;;;;;;;8.40;99.90;;;;;;2092068;28;19955;-72
2022/02/04 00:53:17;;;;;;;;;;;8.40;99.90;;;;;;2106621;28;19923;-71
2022/02/04 00:55:36;;;;;;;;;;;8.40;99.90;;;;;;2100196;28;20288;-71
2022/02/04 01:26:11;;;;;;;;;;;8.40;99.90;;;;;;2102344;28;19908;-72
2022/02/04 01:27:13;;;;;;;;;;;8.40;99.90;;;;;;2096562;28;20375;-72
2022/02/04 01:28:14;;;;;;;;;;;8.40;99.90;;;;;;2096614;28;19908;-72
2022/02/04 01:29:14;;;;;;;;;;;8.40;99.90;;;;;;2104089;28;19948;-72
2022/02/04 01:30:18;;;;;;;;;;;8.40;99.90;;;;;;2102064;28;20379;-72
2022/02/04 01:31:20;;;;;;;;;;;8.40;99.90;;;;;;2102580;28;20340;-72
2022/02/04 01:32:21;;;;;;;;;;;8.40;99.90;;;;;;2102999;28;19915;-72
2022/02/04 01:33:22;;;;;;;;;;;8.40;99.90;;;;;;2115728;27;19914;-72
2022/02/04 01:34:22;;;;;;;;;;;8.40;99.90;;;;;;2114541;27;20370;-72
2022/02/04 01:35:23;;;;;;;;;;;8.40;99.90;;;;;;2101776;28;19953;-72
2022/02/04 01:36:23;;;;;;;;;;;8.40;99.90;;;;;;2103422;28;19916;-72
2022/02/04 01:37:24;;;;;;;;;;;8.40;99.90;;;;;;2097229;28;20424;-72
2022/02/04 01:38:25;;;;;;;;;;;8.40;99.90;;;;;;2093935;28;19919;-72
2022/02/04 01:39:26;;;;;;;;;;;8.40;99.90;;;;;;2098750;28;20073;-72
2022/02/04 01:40:26;;;;;;;;;;;8.40;99.90;;;;;;2103357;28;19916;-72
2022/02/04 01:41:27;;;;;;;;;;;8.40;99.90;;;;;;2101466;28;19962;-72
2022/02/04 01:42:27;;;;;;;;;;;8.40;99.90;;;;;;2099746;28;19915;-71
2022/02/04 01:43:27;;;;;;;;;;;8.40;99.90;;;;;;2105391;28;19912;-72
2022/02/04 01:44:28;;;;;;;;;;;8.40;99.90;;;;;;2098970;28;19916;-72
2022/02/04 01:45:29;;;;;;;;;;;8.50;99.90;;;;;;2092825;28;19909;-72
2022/02/04 01:46:29;;;;;;;;;;;8.40;99.90;;;;;;2102822;28;19908;-72
2022/02/04 01:47:31;;;;;;;;;;;8.40;99.90;;;;;;2108668;28;19908;-72
2022/02/04 01:48:32;;;;;;;;;;;8.40;99.90;;;;;;2102397;28;20344;-72
2022/02/04 01:49:34;;;;;;;;;;;8.40;99.90;;;;;;2109667;28;20349;-71
2022/02/04 01:50:34;;;;;;;;;;;8.40;99.90;;;;;;2110141;28;19919;-72
2022/02/04 01:51:35;;;;;;;;;;;8.40;99.90;;;;;;2102464;28;19919;-72
2022/02/04 01:52:35;;;;;;;;;;;8.40;99.90;;;;;;2105315;28;19916;-72
2022/02/04 01:53:36;;;;;;;;;;;8.40;99.90;;;;;;2106570;28;19916;-71
2022/02/04 01:54:37;;;;;;;;;;;8.40;99.90;;;;;;2113406;28;19911;-71
2022/02/04 01:55:37;;;;;;;;;;;8.40;99.90;;;;;;2099486;28;19913;-71
2022/02/04 01:56:38;;;;;;;;;;;8.40;99.90;;;;;;2102519;28;19909;-71
2022/02/04 01:57:38;;;;;;;;;;;8.40;99.90;;;;;;2102368;28;20325;-72
2022/02/04 01:58:39;;;;;;;;;;;8.40;99.90;;;;;;2102820;28;19916;-71
2022/02/04 01:59:40;;;;;;;;;;;8.40;99.90;;;;;;2104636;28;19911;-71
2022/02/04 02:00:40;;;;;;;;;;;8.40;99.90;;;;;;2104600;28;19908;-71
2022/02/04 02:01:41;;;;;;;;;;;8.40;99.90;;;;;;2103873;28;19966;-71
2022/02/04 02:02:41;;;;;;;;;;;8.40;99.90;;;;;;2101809;28;19908;-72
2022/02/04 02:03:42;;;;;;;;;;;8.40;99.90;;;;;;2100329;28;19995;-72
2022/02/04 02:04:42;;;;;;;;;;;8.40;99.90;;;;;;2097272;28;20276;-72
2022/02/04 02:05:43;;;;;;;;;;;8.40;99.90;;;;;;2102742;28;19934;-71
2022/02/04 02:06:52;;;;;;;;;;;8.40;99.90;;;;;;2101194;28;19908;-71
2022/02/04 02:07:52;;;;;;;;;;;8.40;99.90;;;;;;2105661;28;19927;-71
2022/02/04 02:08:53;;;;;;;;;;;8.40;99.90;;;;;;2094716;28;19913;-71
2022/02/04 02:09:58;;;;;;;;;;;8.40;99.90;;;;;;2095799;28;19920;-71
2022/02/04 02:10:59;;;;;;;;;;;8.40;99.90;;;;;;2102434;28;19927;-72
2022/02/04 02:12:03;;;;;;;;;;;8.40;99.90;;;;;;2100955;28;19928;-72
2022/02/04 02:14:26;;;;;;;;;;;8.50;99.90;;;;;;2104844;28;20326;-71
2022/02/04 02:32:51;;;;;;;;;;;8.50;99.90;;;;;;2106179;28;19916;-71
2022/02/04 02:42:02;;;;;;;;;;;8.40;99.90;;;;;;2103156;28;19997;-71
2022/02/04 02:44:19;;;;;;;;;;;8.40;99.90;;;;;;2099680;28;20376;-71
2022/02/04 02:47:47;;;;;;;;;;;8.40;99.90;;;;;;2103236;28;20023;-71
2022/02/04 02:49:22;;;;;;;;;;;8.40;99.90;;;;;;2109737;28;19915;-71
2022/02/04 02:51:56;;;;;;;;;;;8.40;99.90;;;;;;2101501;28;19912;-71
2022/02/04 02:59:05;;;;;;;;;;;8.40;99.90;;;;;;2102265;28;19908;-71
2022/02/04 03:01:12;;;;;;;;;;;8.40;99.90;;;;;;2101556;28;19934;-71
2022/02/04 03:02:13;;;;;;;;;;;8.40;99.90;;;;;;2099506;28;19947;-71
2022/02/04 03:03:16;;;;;;;;;;;8.40;99.90;;;;;;2103858;28;19912;-71
2022/02/04 03:04:17;;;;;;;;;;;8.40;99.90;;;;;;2108694;28;20002;-71
2022/02/04 03:05:17;;;;;;;;;;;8.40;99.90;;;;;;2107005;28;19908;-71
2022/02/04 03:06:18;;;;;;;;;;;8.40;99.90;;;;;;2104484;28;19999;-71
2022/02/04 03:07:18;;;;;;;;;;;8.40;99.90;;;;;;2106063;28;19915;-71
2022/02/04 03:08:21;;;;;;;;;;;8.40;99.90;;;;;;2107182;28;20526;-71
2022/02/04 03:09:22;;;;;;;;;;;8.40;99.90;;;;;;2108323;28;20354;-71
2022/02/04 03:10:22;;;;;;;;;;;8.50;99.90;;;;;;2099269;28;19908;-71
2022/02/04 03:11:23;;;;;;;;;;;8.50;99.90;;;;;;2101899;28;19909;-71
2022/02/04 03:12:23;;;;;;;;;;;8.50;99.90;;;;;;2101941;28;20464;-71
2022/02/04 03:13:24;;;;;;;;;;;8.50;99.90;;;;;;2099020;28;19909;-71
2022/02/04 03:14:26;;;;;;;;;;;8.50;99.90;;;;;;2103377;28;20364;-71
2022/02/04 03:15:27;;;;;;;;;;;8.50;99.90;;;;;;2103456;28;20360;-71
2022/02/04 03:16:28;;;;;;;;;;;8.50;99.90;;;;;;2099438;28;20254;-71
2022/02/04 03:17:29;;;;;;;;;;;8.50;99.90;;;;;;2105421;28;19974;-71
2022/02/04 03:18:33;;;;;;;;;;;8.50;99.90;;;;;;2098213;28;19909;-71
2022/02/04 03:19:34;;;;;;;;;;;8.50;99.90;;;;;;2105669;28;19998;-71
2022/02/04 03:20:45;;;;;;;;;;;8.50;99.90;;;;;;2102408;28;19908;-71
2022/02/04 03:21:47;;;;;;;;;;;8.40;99.90;;;;;;2098577;28;19940;-71
2022/02/04 03:22:48;;;;;;;;;;;8.40;99.90;;;;;;2099182;28;20344;-71
2022/02/04 03:23:54;;;;;;;;;;;8.50;99.90;;;;;;2103383;28;19912;-71
2022/02/04 03:24:59;;;;;;;;;;;8.40;99.90;;;;;;2099822;28;19912;-71
2022/02/04 03:26:08;;;;;;;;;;;8.50;99.90;;;;;;2101837;28;20330;-72
2022/02/04 03:27:12;;;;;;;;;;;8.50;99.90;;;;;;2102044;28;19909;-71
2022/02/04 03:28:17;;;;;;;;;;;8.50;99.90;;;;;;2102846;28;20761;-71
2022/02/04 03:29:25;;;;;;;;;;;8.50;99.90;;;;;;2102126;28;20024;-71
2022/02/04 03:30:30;;;;;;;;;;;8.50;99.90;;;;;;2101969;28;19923;-71
2022/02/04 03:31:37;;;;;;;;;;;8.50;99.90;;;;;;2101025;28;19908;-71
2022/02/04 03:32:42;;;;;;;;;;;8.50;99.90;;;;;;2104566;28;19916;-71
2022/02/04 03:33:44;;;;;;;;;;;8.50;99.90;;;;;;2104274;28;19918;-71
2022/02/04 03:34:45;;;;;;;;;;;8.50;99.90;;;;;;2104694;28;19912;-71
2022/02/04 03:35:45;;;;;;;;;;;8.50;99.90;;;;;;2111152;28;19955;-71
2022/02/04 03:36:46;;;;;;;;;;;8.50;99.90;;;;;;2110893;28;20012;-71
2022/02/04 03:37:47;;;;;;;;;;;8.50;99.90;;;;;;2106624;28;20303;-72
2022/02/04 03:38:48;;;;;;;;;;;8.50;99.90;;;;;;2099785;28;19916;-71
2022/02/04 03:39:48;;;;;;;;;;;8.50;99.90;;;;;;2092264;28;19912;-71
2022/02/04 03:40:49;;;;;;;;;;;8.50;99.90;;;;;;2098840;28;19916;-71
2022/02/04 03:41:49;;;;;;;;;;;8.50;99.90;;;;;;2103525;28;19912;-71
2022/02/04 03:42:50;;;;;;;;;;;8.50;99.90;;;;;;2102838;28;19951;-71
2022/02/04 03:43:50;;;;;;;;;;;8.50;99.90;;;;;;2093624;28;19986;-71
2022/02/04 03:44:50;;;;;;;;;;;8.50;99.90;;;;;;2094326;28;19920;-71
2022/02/04 03:45:52;;;;;;;;;;;8.50;99.90;;;;;;2100408;28;19913;-71
2022/02/04 03:46:52;;;;;;;;;;;8.50;99.90;;;;;;2105116;28;19916;-71
2022/02/04 03:47:53;;;;;;;;;;;8.50;99.90;;;;;;2105327;28;19962;-71
2022/02/04 03:48:55;;;;;;;;;;;8.50;99.90;;;;;;2100915;28;19913;-71
2022/02/04 03:49:55;;;;;;;;;;;8.50;99.90;;;;;;2106934;28;19958;-71
2022/02/04 03:50:56;;;;;;;;;;;8.50;99.90;;;;;;2100149;28;19912;-71
2022/02/04 03:51:56;;;;;;;;;;;8.50;99.90;;;;;;2103117;28;19908;-71
2022/02/04 03:52:56;;;;;;;;;;;8.50;99.90;;;;;;2091875;28;19909;-71
2022/02/04 03:53:57;;;;;;;;;;;8.50;99.90;;;;;;2094647;28;19916;-71
2022/02/04 03:54:57;;;;;;;;;;;8.50;99.90;;;;;;2111133;28;19915;-71
2022/02/04 03:55:58;;;;;;;;;;;8.50;99.90;;;;;;2110113;28;19933;-71
2022/02/04 03:56:58;;;;;;;;;;;8.50;99.90;;;;;;2100325;28;20518;-71
2022/02/04 03:57:59;;;;;;;;;;;8.50;99.90;;;;;;2106917;28;19920;-71
2022/02/04 03:58:59;;;;;;;;;;;8.50;99.90;;;;;;2100326;28;19909;-71
2022/02/04 04:00:00;;;;;;;;;;;8.50;99.90;;;;;;2102670;28;19908;-71
2022/02/04 04:01:00;;;;;;;;;;;8.50;99.90;;;;;;2104339;28;19908;-71
2022/02/04 04:02:00;;;;;;;;;;;8.50;99.90;;;;;;2105308;28;19908;-71
2022/02/04 04:03:01;;;;;;;;;;;8.50;99.90;;;;;;2103392;28;20290;-71
2022/02/04 04:04:02;;;;;;;;;;;8.50;99.90;;;;;;2102842;28;19908;-71
2022/02/04 04:05:03;;;;;;;;;;;8.50;99.90;;;;;;2110774;28;20270;-71
2022/02/04 04:06:04;;;;;;;;;;;8.50;99.90;;;;;;2110831;28;19995;-71
2022/02/04 04:07:04;;;;;;;;;;;8.50;99.90;;;;;;2104336;28;19909;-71
2022/02/04 04:08:05;;;;;;;;;;;8.50;99.90;;;;;;2101085;28;20359;-71
2022/02/04 04:09:05;;;;;;;;;;;8.50;99.90;;;;;;2112038;28;19912;-71
2022/02/04 04:10:10;;;;;;;;;;;8.50;99.90;;;;;;2108477;28;19912;-71
2022/02/04 04:11:13;;;;;;;;;;;8.50;99.90;;;;;;2103280;28;20375;-71
2022/02/04 04:12:13;;;;;;;;;;;8.50;99.90;;;;;;2104363;28;20344;-71
2022/02/04 04:13:14;;;;;;;;;;;8.50;99.90;;;;;;2102034;28;20294;-71
2022/02/04 04:14:16;;;;;;;;;;;8.50;99.90;;;;;;2102843;28;19978;-71
2022/02/04 04:15:17;;;;;;;;;;;8.50;99.90;;;;;;2105244;28;19911;-71
2022/02/04 04:16:20;;;;;;;;;;;8.50;99.90;;;;;;2104756;28;19973;-71
2022/02/04 04:17:20;;;;;;;;;;;8.50;99.90;;;;;;2104783;28;19912;-71
2022/02/04 04:18:21;;;;;;;;;;;8.50;99.90;;;;;;2100528;28;19912;-71
2022/02/04 04:19:21;;;;;;;;;;;8.50;99.90;;;;;;2105464;28;20442;-71
2022/02/04 04:20:23;;;;;;;;;;;8.50;99.90;;;;;;2101695;28;19908;-71
2022/02/04 04:21:23;;;;;;;;;;;8.50;99.90;;;;;;2100655;28;19912;-71
2022/02/04 04:22:24;;;;;;;;;;;8.50;99.90;;;;;;2103078;28;20336;-71
2022/02/04 04:23:24;;;;;;;;;;;8.50;99.90;;;;;;2110935;28;19916;-71
2022/02/04 04:24:24;;;;;;;;;;;8.50;99.90;;;;;;2109152;28;20299;-71
2022/02/04 04:25:25;;;;;;;;;;;8.50;99.90;;;;;;2092166;28;19917;-71
2022/02/04 04:26:26;;;;;;;;;;;8.50;99.90;;;;;;2094821;28;19921;-71
2022/02/04 04:27:26;;;;;;;;;;;8.50;99.90;;;;;;2103111;28;19931;-71
2022/02/04 04:28:27;;;;;;;;;;;8.50;99.90;;;;;;2102473;28;20249;-71
2022/02/04 04:29:27;;;;;;;;;;;8.50;99.90;;;;;;2104913;28;19965;-71
2022/02/04 04:30:28;;;;;;;;;;;8.50;99.90;;;;;;2109668;28;19916;-71
2022/02/04 04:31:28;;;;;;;;;;;8.50;99.90;;;;;;2110877;28;19931;-71
2022/02/04 04:32:29;;;;;;;;;;;8.50;99.90;;;;;;2107446;28;19947;-71
2022/02/04 04:33:29;;;;;;;;;;;8.50;99.90;;;;;;2106671;28;19909;-71
2022/02/04 04:34:29;;;;;;;;;;;8.50;99.90;;;;;;2106469;28;19976;-71
2022/02/04 04:35:30;;;;;;;;;;;8.50;99.90;;;;;;2101975;28;19962;-71
2022/02/04 04:36:31;;;;;;;;;;;8.50;99.90;;;;;;2103126;28;19908;-72
2022/02/04 04:37:31;;;;;;;;;;;8.50;99.90;;;;;;2105893;28;19955;-71
2022/02/04 04:38:41;;;;;;;;;;;8.50;99.90;;;;;;2102583;28;19916;-71
2022/02/04 04:41:19;;;;;;;;;;;8.60;99.90;;;;;;2104642;28;19954;-71
2022/02/04 04:42:30;;;;;;;;;;;8.50;99.90;;;;;;2094554;28;20003;-71
2022/02/04 04:43:57;;;;;;;;;;;8.50;99.90;;;;;;2096419;28;19935;-71
2022/02/04 04:45:13;;;;;;;;;;;8.60;99.90;;;;;;2106309;28;19912;-71
2022/02/04 05:25:59;;;;;;;;;;;8.60;99.90;;;;;;2099845;28;19970;-71
2022/02/04 05:29:14;;;;;;;;;;;8.60;99.90;;;;;;2104343;28;20507;-71
2022/02/04 05:30:14;;;;;;;;;;;8.60;99.90;;;;;;2107591;28;19908;-71
2022/02/04 05:31:15;;;;;;;;;;;8.60;99.90;;;;;;2101953;28;19908;-71
2022/02/04 05:32:15;;;;;;;;;;;8.60;99.90;;;;;;2103996;28;19912;-71
2022/02/04 05:33:16;;;;;;;;;;;8.60;99.90;;;;;;2104008;28;19915;-71
2022/02/04 05:34:19;;;;;;;;;;;8.60;99.90;;;;;;2094462;28;19935;-71
2022/02/04 05:35:20;;;;;;;;;;;8.60;99.90;;;;;;2094740;28;19913;-71
2022/02/04 05:36:21;;;;;;;;;;;8.60;99.90;;;;;;2116807;27;19907;-71
2022/02/04 05:37:23;;;;;;;;;;;8.60;99.90;;;;;;2114352;27;19907;-72
2022/02/04 05:38:26;;;;;;;;;;;8.60;99.90;;;;;;2103888;28;20011;-71
2022/02/04 05:39:31;;;;;;;;;;;8.60;99.90;;;;;;2104422;28;19928;-71
2022/02/04 05:40:39;;;;;;;;;;;8.60;99.90;;;;;;2105004;28;19908;-71
2022/02/04 05:41:44;;;;;;;;;;;8.60;99.90;;;;;;2102721;28;19942;-71
2022/02/04 05:42:52;;;;;;;;;;;8.60;99.90;;;;;;2102223;28;19913;-71
2022/02/04 05:43:54;;;;;;;;;;;8.60;99.90;;;;;;2101831;28;19912;-71
2022/02/04 05:45:17;;;;;;;;;;;8.60;99.90;;;;;;2105207;28;19908;-71
2022/02/04 05:46:20;;;;;;;;;;;8.60;99.90;;;;;;2100703;28;19942;-71
2022/02/04 05:47:21;;;;;;;;;;;8.60;99.90;;;;;;2102001;28;20288;-71
2022/02/04 05:48:23;;;;;;;;;;;8.60;99.90;;;;;;2102017;28;19948;-71
2022/02/04 05:49:25;;;;;;;;;;;8.60;99.90;;;;;;2102567;28;19913;-71
2022/02/04 05:50:43;;;;;;;;;;;8.60;99.90;;;;;;2100451;28;19913;-71
2022/02/04 05:52:03;;;;;;;;;;;8.60;99.90;;;;;;2104002;28;19912;-71
2022/02/04 05:54:27;;;;;;;;;;;8.60;99.90;;;;;;2101728;28;20424;-71
2022/02/04 05:57:53;;;;;;;;;;;8.60;99.90;;;;;;2097719;28;19917;-71
2022/02/04 05:59:12;;;;;;;;;;;8.70;99.90;;;;;;2097376;28;19934;-71
2022/02/04 06:00:32;;;;;;;;;;;8.70;99.90;;;;;;2098027;28;19908;-71
2022/02/04 06:08:33;;;;;;;;;;;8.70;99.90;;;;;;2101653;28;19912;-71
2022/02/04 06:11:09;;;;;;;;;;;8.70;99.90;;;;;;2101905;28;19918;-71
2022/02/04 06:22:23;;;;;;;;;;;8.60;99.90;;;;;;2102718;28;19951;-71
2022/02/04 06:23:23;;;;;;;;;;;8.60;99.90;;;;;;2099141;28;20349;-71
2022/02/04 06:24:24;;;;;;;;;;;8.60;99.90;;;;;;2099626;28;20339;-71
2022/02/04 06:25:24;;;;;;;;;;;8.60;99.90;;;;;;2107985;27;19926;-71
2022/02/04 06:26:25;;;;;;;;;;;8.60;99.90;;;;;;2108490;27;20361;-71
2022/02/04 06:27:26;;;;;;;;;;;8.60;99.90;;;;;;2099016;28;19966;-71
2022/02/04 06:28:28;;;;;;;;;;;8.60;99.90;;;;;;2099321;28;19912;-71
2022/02/04 06:29:28;;;;;;;;;;;8.60;99.90;;;;;;2103136;28;20382;-71
2022/02/04 06:30:29;;;;;;;;;;;8.60;99.90;;;;;;2102104;28;20497;-71
2022/02/04 06:31:30;;;;;;;;;;;8.60;99.90;;;;;;2101557;28;19931;-70
2022/02/04 06:32:31;;;;;;;;;;;8.60;99.90;;;;;;2104678;28;19948;-70
2022/02/04 06:33:32;;;;;;;;;;;8.60;99.90;;;;;;2103968;28;19912;-70
2022/02/04 06:34:32;;;;;;;;;;;8.60;99.90;;;;;;2103110;28;19922;-70
2022/02/04 06:35:35;;;;;;;;;;;8.60;99.90;;;;;;2103738;28;19912;-70
2022/02/04 06:36:35;;;;;;;;;;;8.60;99.90;;;;;;2107339;27;19918;-70
2022/02/04 06:37:36;;;;;;;;;;;8.60;99.90;;;;;;2114590;27;19969;-70
2022/02/04 06:38:37;;;;;;;;;;;8.60;99.90;;;;;;2111782;28;20000;-70
2022/02/04 06:39:37;;;;;;;;;;;8.70;99.90;;;;;;2099606;28;19958;-70
2022/02/04 06:40:38;;;;;;;;;;;8.60;99.90;;;;;;2099888;28;19923;-70
2022/02/04 06:41:38;;;;;;;;;;;8.60;99.90;;;;;;2100748;28;19944;-70
2022/02/04 06:42:39;;;;;;;;;;;8.70;99.90;;;;;;2100586;28;20070;-70
2022/02/04 06:43:39;;;;;;;;;;;8.70;99.90;;;;;;2100659;28;19994;-70
2022/02/04 06:44:40;;;;;;;;;;;8.70;99.90;;;;;;2102776;28;19924;-70
2022/02/04 06:45:40;;;;;;;;;;;8.70;99.90;;;;;;2101784;28;19920;-71
2022/02/04 06:46:41;;;;;;;;;;;8.70;99.90;;;;;;2100534;28;19908;-70
2022/02/04 06:47:43;;;;;;;;;;;8.70;99.90;;;;;;2104122;28;19962;-70
2022/02/04 06:48:48;;;;;;;;;;;8.70;99.90;;;;;;2101530;28;20308;-71
2022/02/04 06:49:48;;;;;;;;;;;8.70;99.90;;;;;;2092130;28;19912;-70
2022/02/04 06:50:49;;;;;;;;;;;8.70;99.90;;;;;;2093127;28;19909;-70
2022/02/04 06:51:49;;;;;;;;;;;8.70;99.90;;;;;;2107098;28;19944;-70
2022/02/04 06:52:53;;;;;;;;;;;8.70;99.90;;;;;;2106695;28;19915;-71
2022/02/04 06:53:54;;;;;;;;;;;8.70;99.90;;;;;;2093710;28;19913;-70
2022/02/04 06:54:54;;;;;;;;;;;8.70;99.90;;;;;;2094501;28;20411;-70
2022/02/04 06:55:54;;;;;;;;;;;8.70;99.90;;;;;;2099671;28;19915;-70
2022/02/04 06:56:55;;;;;;;;;;;8.70;99.90;;;;;;2099154;28;20261;-70
2022/02/04 06:57:57;;;;;;;;;;;8.70;99.90;;;;;;2100375;28;19920;-70
2022/02/04 06:58:57;;;;;;;;;;;8.70;99.90;;;;;;2099029;28;19973;-70
2022/02/04 06:59:58;;;;;;;;;;;8.70;99.90;;;;;;2100202;28;19956;-71
2022/02/04 07:00:59;;;;;;;;;;;8.70;99.90;;;;;;2099137;28;19915;-70
2022/02/04 07:02:00;;;;;;;;;;;8.70;99.90;;;;;;2100431;28;19917;-70
2022/02/04 07:03:00;;;;;;;;;;;8.70;99.90;;;;;;2101497;28;19951;-70
2022/02/04 07:04:05;;;;;;;;;;;8.70;99.90;;;;;;2092941;28;20018;-71
2022/02/04 07:05:11;;;;;;;;;;;8.70;99.90;;;;;;2101796;28;20025;-70
2022/02/04 07:06:15;;;;;;;;;;;8.70;99.90;;;;;;2105408;28;19912;-70
2022/02/04 07:07:17;;;;;;;;;;;8.70;99.90;;;;;;2099115;28;19937;-70
2022/02/04 07:08:24;;;;;;;;;;;8.70;99.90;;;;;;2097107;28;19919;-70
2022/02/04 07:10:39;;;;;;;;;;;8.70;99.90;;;;;;2101138;28;19951;-70
2022/02/04 07:12:58;;;;;;;;;;;8.70;99.90;;;;;;2101523;28;19966;-70
2022/02/04 07:15:43;;;;;;;;;;;8.70;99.90;;;;;;2100030;28;19958;-70
2022/02/04 07:20:13;;;;;;;;;;;8.70;99.90;;;;;;2100133;28;19908;-71
2022/02/04 07:21:13;;;;;;;;;;;8.80;99.90;;;;;;2100528;28;19952;-71
2022/02/04 07:22:31;;;;;;;;;;;8.80;99.90;;;;;;2103794;28;19912;-70
2022/02/04 07:23:33;;;;;;;;;;;8.80;99.90;;;;;;2103542;28;20328;-70
2022/02/04 07:24:33;;;;;;;;;;;8.70;99.90;;;;;;2102479;28;19942;-71
2022/02/04 07:25:34;;;;;;;;;;;8.80;99.90;;;;;;2099484;28;20392;-70
2022/02/04 07:26:34;;;;;;;;;;;8.70;99.90;;;;;;2100188;28;20356;-70
2022/02/04 07:27:37;;;;;;;;;;;8.70;99.90;;;;;;2104266;28;19924;-70
2022/02/04 07:28:37;;;;;;;;;;;8.80;99.90;;;;;;2107240;28;19915;-70
2022/02/04 07:29:39;;;;;;;;;;;8.80;99.90;;;;;;2104720;28;20336;-70
2022/02/04 07:30:40;;;;;;;;;;;8.80;99.90;;;;;;2103435;28;19931;-70
2022/02/04 07:31:41;;;;;;;;;;;8.80;99.90;;;;;;2098423;28;20402;-71
2022/02/04 07:32:56;;;;;;;;;;;8.80;99.90;;;;;;2102773;28;19951;-70
2022/02/04 07:38:37;;;;;;;;;;;8.80;99.90;;;;;;2102975;28;19912;-71
2022/02/04 07:41:04;;;;;;;;;;;8.80;99.90;;;;;;2103112;28;19912;-70
2022/02/04 07:42:04;;;;;;;;;;;8.80;99.90;;;;;;2107286;28;19964;-70
2022/02/04 07:43:05;;;;;;;;;;;8.80;99.90;;;;;;2105008;28;19965;-70
2022/02/04 07:44:05;;;;;;;;;;;8.90;99.90;;;;;;2098637;28;20039;-70
2022/02/04 07:45:06;;;;;;;;;;;8.90;99.90;;;;;;2104896;28;19912;-70
2022/02/04 07:46:06;;;;;;;;;;;8.80;99.90;;;;;;2108704;28;19907;-70
2022/02/04 07:47:07;;;;;;;;;;;8.80;99.90;;;;;;2107150;28;19999;-70
2022/02/04 07:48:07;;;;;;;;;;;8.80;99.90;;;;;;2103572;28;19965;-70
2022/02/04 07:49:08;;;;;;;;;;;8.90;99.90;;;;;;2099974;28;19912;-70
2022/02/04 07:50:09;;;;;;;;;;;8.80;99.90;;;;;;2103266;28;20006;-70
2022/02/04 07:51:09;;;;;;;;;;;8.80;99.90;;;;;;2104590;28;19912;-70
2022/02/04 07:52:10;;;;;;;;;;;8.90;99.90;;;;;;2098690;28;20348;-70
2022/02/04 07:53:10;;;;;;;;;;;8.90;99.90;;;;;;2103775;28;19912;-71
2022/02/04 07:54:11;;;;;;;;;;;8.90;99.90;;;;;;2099519;28;20349;-70
2022/02/04 07:55:11;;;;;;;;;;;8.90;99.90;;;;;;2099889;28;19908;-70
2022/02/04 07:56:12;;;;;;;;;;;8.90;99.90;;;;;;2103848;28;19908;-70
2022/02/04 07:57:12;;;;;;;;;;;8.90;99.90;;;;;;2099504;28;20420;-71
2022/02/04 07:58:13;;;;;;;;;;;8.90;99.90;;;;;;2102079;28;19919;-71
2022/02/04 07:59:14;;;;;;;;;;;8.90;99.90;;;;;;2101805;28;19935;-71
2022/02/04 08:00:16;;;;;;;;;;;8.90;99.90;;;;;;2101632;28;19951;-70
2022/02/04 08:01:20;;;;;;;;;;;8.90;99.90;;;;;;2101443;28;19942;-70
2022/02/04 08:02:21;;;;;;;;;;;8.90;99.90;;;;;;2100476;28;19991;-71
2022/02/04 08:04:59;;;;;;;;;;;9.00;99.90;;;;;;2088226;28;19916;-70
2022/02/04 08:06:08;;;;;;;;;;;9.00;99.90;;;;;;2099174;28;19909;-70
2022/02/04 08:07:13;;;;;;;;;;;9.00;99.90;;;;;;2116009;27;19912;-71
2022/02/04 08:08:19;;;;;;;;;;;9.00;99.90;;;;;;2107643;28;19961;-71
2022/02/04 08:10:32;;;;;;;;;;;9.00;99.90;;;;;;2100507;28;19908;-71
2022/02/04 08:12:02;;;;;;;;;;;9.00;99.90;;;;;;2100853;28;19908;-71
2022/02/04 08:21:33;;;;;;;;;;;9.10;99.90;;;;;;2101823;28;19935;-70
2022/02/04 08:22:46;;;;;;;;;;;9.10;99.90;;;;;;2101579;28;19908;-70
2022/02/04 08:26:31;;;;;;;;;;;9.20;99.90;;;;;;2101303;28;19915;-71
2022/02/04 08:30:25;;;;;;;;;;;9.20;99.90;;;;;;2101862;28;20448;-70
2022/02/04 08:33:33;;;;;;;;;;;9.20;99.90;;;;;;2104380;28;19908;-70
2022/02/04 08:34:28;;;;;;;;;;;9.20;99.90;;;;;;2103201;28;19931;-70
2022/02/04 08:48:53;;;;;;;;;;;9.30;99.90;;;;;;2104736;28;19915;-70
2022/02/04 08:51:26;;;;;;;;;;;9.30;99.90;;;;;;2101336;28;19953;-70
2022/02/04 08:54:38;;;;;;;;;;;9.30;99.90;;;;;;2102483;28;19913;-70
2022/02/04 08:55:49;;;;;;;;;;;9.30;99.90;;;;;;2096985;28;20412;-71
2022/02/04 08:59:13;;;;;;;;;;;9.30;99.90;;;;;;2099102;28;19916;-70
2022/02/04 09:00:40;;;;;;;;;;;9.40;99.90;;;;;;2103337;28;19915;-70
2022/02/04 09:01:48;;;;;;;;;;;9.40;99.90;;;;;;2101462;28;19958;-71
2022/02/04 09:02:57;;;;;;;;;;;9.40;99.90;;;;;;2104396;28;19916;-70
2022/02/04 09:04:07;;;;;;;;;;;9.40;99.90;;;;;;2097638;28;20789;-70
2022/02/04 09:05:15;;;;;;;;;;;9.40;99.90;;;;;;2101153;28;20366;-70
2022/02/04 09:06:20;;;;;;;;;;;9.40;99.90;;;;;;2102575;28;19912;-70
2022/02/04 09:07:24;;;;;;;;;;;9.40;99.90;;;;;;2104934;28;19974;-70
2022/02/04 09:08:29;;;;;;;;;;;9.50;99.90;;;;;;2097336;28;19961;-70
2022/02/04 09:10:47;;;;;;;;;;;9.40;99.90;;;;;;2101529;28;19950;-70
2022/02/04 09:11:53;;;;;;;;;;;9.40;99.90;;;;;;2101395;28;19914;-70
2022/02/04 09:19:14;;;;;;;;;;;9.50;99.90;;;;;;2104425;28;19908;-70
2022/02/04 09:21:10;;;;;;;;;;;9.50;99.90;;;;;;2101914;28;19912;-70
2022/02/04 09:22:48;;;;;;;;;;;9.50;99.90;;;;;;2100961;28;20030;-71
2022/02/04 09:23:48;;;;;;;;;;;9.50;99.90;;;;;;2100695;28;19954;-70
2022/02/04 09:24:48;;;;;;;;;;;9.50;99.90;;;;;;2097808;28;20354;-70
2022/02/04 09:25:49;;;;;;;;;;;9.50;99.90;;;;;;2103955;28;19908;-70
2022/02/04 09:26:51;;;;;;;;;;;9.50;99.90;;;;;;2098597;28;19908;-71
2022/02/04 09:27:51;;;;;;;;;;;9.50;99.90;;;;;;2107532;28;19915;-71
2022/02/04 09:28:52;;;;;;;;;;;9.50;99.90;;;;;;2108743;28;19915;-70
2022/02/04 09:29:52;;;;;;;;;;;9.50;99.90;;;;;;2100558;28;19978;-70
2022/02/04 09:30:53;;;;;;;;;;;9.50;99.90;;;;;;2099552;28;19913;-71
2022/02/04 09:31:53;;;;;;;;;;;9.50;99.90;;;;;;2097652;28;19979;-71
2022/02/04 09:32:53;;;;;;;;;;;9.50;99.90;;;;;;2101555;28;19916;-70
2022/02/04 09:33:54;;;;;;;;;;;9.50;99.90;;;;;;2104554;28;19908;-70
2022/02/04 09:34:55;;;;;;;;;;;9.50;99.90;;;;;;2103547;28;19908;-70
2022/02/04 09:35:56;;;;;;;;;;;9.50;99.90;;;;;;2102144;28;19916;-70
2022/02/04 09:36:56;;;;;;;;;;;9.50;99.90;;;;;;2104272;28;19995;-70
2022/02/04 09:37:57;;;;;;;;;;;9.50;99.90;;;;;;2101669;28;19981;-71
2022/02/04 09:38:59;;;;;;;;;;;9.60;99.90;;;;;;2099185;28;20000;-71
2022/02/04 09:39:59;;;;;;;;;;;9.60;99.90;;;;;;2101024;28;19916;-70
2022/02/04 09:41:00;;;;;;;;;;;9.60;99.90;;;;;;2100868;28;19952;-70
2022/02/04 09:42:00;;;;;;;;;;;9.60;99.90;;;;;;2100821;28;19915;-70
2022/02/04 09:43:02;;;;;;;;;;;9.60;99.90;;;;;;2100352;28;19921;-70
2022/02/04 09:44:02;;;;;;;;;;;9.60;99.90;;;;;;2097911;28;19908;-71
2022/02/04 09:45:03;;;;;;;;;;;9.60;99.90;;;;;;2103776;28;20441;-70
2022/02/04 09:46:06;;;;;;;;;;;9.60;99.90;;;;;;2100183;28;19999;-70
2022/02/04 09:47:06;;;;;;;;;;;9.60;99.90;;;;;;2099089;28;19928;-70
2022/02/04 09:48:09;;;;;;;;;;;9.70;99.90;;;;;;2102221;28;19958;-70
2022/02/04 09:49:21;;;;;;;;;;;9.70;99.90;;;;;;2100184;28;19913;-70
2022/02/04 09:50:23;;;;;;;;;;;9.70;99.90;;;;;;2098315;28;19947;-70
2022/02/04 09:51:35;;;;;;;;;;;9.70;99.90;;;;;;2102957;28;19916;-70
2022/02/04 10:12:04;;;;;;;;;;;9.80;99.90;;;;;;2100798;28;19919;-71
2022/02/04 10:14:05;;;;;;;;;;;9.80;99.90;;;;;;2099992;28;19924;-70
2022/02/04 10:18:03;;;;;;;;;;;9.80;99.90;;;;;;2101549;28;21325;-70
2022/02/04 10:19:27;;;;;;;;;;;9.80;99.90;;;;;;2100801;28;19918;-70
2022/02/04 10:20:28;;;;;;;;;;;9.90;99.90;;;;;;2105059;28;19966;-71